Terminal Aerodrome Forecast
Issued by NWS

Home | Current Version | Previous Version | Text Only | Print | Product List | Glossary On
Versions: 1 2 3 4 5 6 7 8 9 10 11 12 13 14 15 16 17 18 19 20 21 22
000
FTUS43 KDLH 140527
TAFHIB
TAF
KHIB 140527Z 1406/1506 VRB03KT P6SM SCT250
     FM141500 17006KT 4SM -SN OVC024
     FM141700 17008KT 1SM -SN OVC015
     FM142200 23004KT 4SM -SN BKN015
     FM150300 33006KT P6SM BKN023=

USA.gov is the U.S. government's official web portal to all federal, state and local government web resources and services.